sensor_id;sensor_type;location;lat;lon;timestamp;pressure;altitude;pressure_sealevel;temperature;humidity
25526;BME280;13424;48.424;11.258;2023-04-26T00:02:08;95520.56;;;9.89;76.63
25526;BME280;13424;48.424;11.258;2023-04-26T00:04:36;95519.47;;;9.61;77.21
25526;BME280;13424;48.424;11.258;2023-04-26T00:07:02;95518.28;;;9.69;77.12
25526;BME280;13424;48.424;11.258;2023-04-26T00:09:28;95508.13;;;9.66;77.26
25526;BME280;13424;48.424;11.258;2023-04-26T00:11:54;95506.56;;;9.30;78.18
25526;BME280;13424;48.424;11.258;2023-04-26T00:14:20;95511.88;;;9.30;78.15
25526;BME280;13424;48.424;11.258;2023-04-26T00:16:46;95513.94;;;9.51;77.38
25526;BME280;13424;48.424;11.258;2023-04-26T00:19:11;95519.25;;;9.51;77.19
25526;BME280;13424;48.424;11.258;2023-04-26T00:21:38;95514.81;;;9.68;76.79
25526;BME280;13424;48.424;11.258;2023-04-26T00:24:13;95519.97;;;9.35;77.55
25526;BME280;13424;48.424;11.258;2023-04-26T00:26:39;95520.88;;;9.52;77.22
25526;BME280;13424;48.424;11.258;2023-04-26T00:29:04;95525.72;;;9.55;77.13
25526;BME280;13424;48.424;11.258;2023-04-26T00:31:30;95521.31;;;9.61;76.94
25526;BME280;13424;48.424;11.258;2023-04-26T00:38:03;95524.50;;;9.34;77.95
25526;BME280;13424;48.424;11.258;2023-04-26T00:40:29;95518.47;;;9.39;78.23
25526;BME280;13424;48.424;11.258;2023-04-26T00:42:57;95526.00;;;9.18;78.46
25526;BME280;13424;48.424;11.258;2023-04-26T00:45:33;95529.72;;;8.94;79.49
25526;BME280;13424;48.424;11.258;2023-04-26T00:47:59;95529.03;;;9.10;78.90
25526;BME280;13424;48.424;11.258;2023-04-26T00:50:26;95521.63;;;9.12;79.13
25526;BME280;13424;48.424;11.258;2023-04-26T00:52:52;95525.31;;;8.88;79.89
25526;BME280;13424;48.424;11.258;2023-04-26T00:55:20;95525.09;;;9.01;79.80
25526;BME280;13424;48.424;11.258;2023-04-26T00:57:46;95525.66;;;9.27;79.05
25526;BME280;13424;48.424;11.258;2023-04-26T01:00:13;95525.75;;;9.32;78.75
25526;BME280;13424;48.424;11.258;2023-04-26T01:02:40;95522.28;;;9.08;79.22
25526;BME280;13424;48.424;11.258;2023-04-26T01:05:16;95529.72;;;9.17;79.08
25526;BME280;13424;48.424;11.258;2023-04-26T01:07:43;95524.81;;;9.38;78.63
25526;BME280;13424;48.424;11.258;2023-04-26T01:10:10;95532.72;;;9.21;78.97
25526;BME280;13424;48.424;11.258;2023-04-26T01:12:37;95528.19;;;9.45;78.69
25526;BME280;13424;48.424;11.258;2023-04-26T01:15:04;95526.59;;;9.32;78.78
25526;BME280;13424;48.424;11.258;2023-04-26T01:17:30;95529.00;;;9.34;79.18
25526;BME280;13424;48.424;11.258;2023-04-26T01:19:56;95531.31;;;9.42;78.89
25526;BME280;13424;48.424;11.258;2023-04-26T01:22:22;95535.25;;;9.28;79.85
25526;BME280;13424;48.424;11.258;2023-04-26T01:24:50;95531.03;;;9.55;78.71
25526;BME280;13424;48.424;11.258;2023-04-26T01:27:16;95523.94;;;9.32;79.81
25526;BME280;13424;48.424;11.258;2023-04-26T01:29:42;95530.50;;;9.30;80.04
25526;BME280;13424;48.424;11.258;2023-04-26T01:32:08;95532.94;;;9.43;79.42
25526;BME280;13424;48.424;11.258;2023-04-26T01:34:34;95532.38;;;9.29;80.03
25526;BME280;13424;48.424;11.258;2023-04-26T01:37:00;95532.91;;;9.55;79.02
25526;BME280;13424;48.424;11.258;2023-04-26T01:39:27;95536.38;;;9.55;79.21
25526;BME280;13424;48.424;11.258;2023-04-26T01:41:53;95533.47;;;9.68;78.55
25526;BME280;13424;48.424;11.258;2023-04-26T01:44:18;95533.97;;;9.42;79.23
25526;BME280;13424;48.424;11.258;2023-04-26T01:46:44;95534.47;;;9.27;79.88
25526;BME280;13424;48.424;11.258;2023-04-26T01:49:11;95532.56;;;9.51;79.17
25526;BME280;13424;48.424;11.258;2023-04-26T01:51:37;95533.25;;;9.58;78.93
25526;BME280;13424;48.424;11.258;2023-04-26T01:54:06;95541.38;;;9.40;79.59
25526;BME280;13424;48.424;11.258;2023-04-26T01:56:31;95539.06;;;9.43;79.46
25526;BME280;13424;48.424;11.258;2023-04-26T01:59:01;95536.28;;;9.50;79.36
25526;BME280;13424;48.424;11.258;2023-04-26T02:01:29;95539.78;;;9.27;80.24
25526;BME280;13424;48.424;11.258;2023-04-26T02:03:55;95542.44;;;9.04;81.24
25526;BME280;13424;48.424;11.258;2023-04-26T02:06:21;95551.44;;;9.38;80.13
25526;BME280;13424;48.424;11.258;2023-04-26T02:08:47;95559.44;;;9.38;80.41
25526;BME280;13424;48.424;11.258;2023-04-26T02:11:13;95556.34;;;9.17;80.60
25526;BME280;13424;48.424;11.258;2023-04-26T02:13:39;95543.72;;;9.25;80.53
25526;BME280;13424;48.424;11.258;2023-04-26T02:16:05;95546.13;;;9.38;80.20
25526;BME280;13424;48.424;11.258;2023-04-26T02:18:32;95536.66;;;9.42;79.81
25526;BME280;13424;48.424;11.258;2023-04-26T02:20:59;95544.88;;;9.40;79.75
25526;BME280;13424;48.424;11.258;2023-04-26T02:23:24;95535.03;;;9.41;79.99
25526;BME280;13424;48.424;11.258;2023-04-26T02:25:50;95527.63;;;9.43;79.73
25526;BME280;13424;48.424;11.258;2023-04-26T02:28:19;95531.31;;;9.42;79.82
25526;BME280;13424;48.424;11.258;2023-04-26T02:30:45;95538.81;;;9.57;79.01
25526;BME280;13424;48.424;11.258;2023-04-26T02:33:11;95538.13;;;9.49;79.03
25526;BME280;13424;48.424;11.258;2023-04-26T02:35:38;95536.00;;;9.63;78.73
25526;BME280;13424;48.424;11.258;2023-04-26T02:38:03;95544.25;;;9.62;78.91
25526;BME280;13424;48.424;11.258;2023-04-26T02:40:29;95555.22;;;9.77;78.06
25526;BME280;13424;48.424;11.258;2023-04-26T02:42:56;95547.69;;;9.74;78.25
25526;BME280;13424;48.424;11.258;2023-04-26T02:45:22;95540.31;;;9.64;78.90
25526;BME280;13424;48.424;11.258;2023-04-26T02:47:48;95538.66;;;9.75;77.92
25526;BME280;13424;48.424;11.258;2023-04-26T02:50:14;95540.16;;;9.71;78.24
25526;BME280;13424;48.424;11.258;2023-04-26T02:52:39;95546.91;;;9.62;78.80
25526;BME280;13424;48.424;11.258;2023-04-26T02:55:06;95536.69;;;9.82;77.64
25526;BME280;13424;48.424;11.258;2023-04-26T02:57:32;95535.88;;;9.82;77.71
25526;BME280;13424;48.424;11.258;2023-04-26T02:59:58;95533.16;;;9.53;78.62
25526;BME280;13424;48.424;11.258;2023-04-26T03:02:24;95535.03;;;9.29;79.08
25526;BME280;13424;48.424;11.258;2023-04-26T03:04:50;95535.50;;;9.14;79.58
25526;BME280;13424;48.424;11.258;2023-04-26T03:07:16;95531.22;;;9.25;79.35
25526;BME280;13424;48.424;11.258;2023-04-26T03:09:42;95533.88;;;9.48;78.37
25526;BME280;13424;48.424;11.258;2023-04-26T03:12:08;95532.47;;;9.22;79.32
25526;BME280;13424;48.424;11.258;2023-04-26T03:14:35;95527.25;;;9.39;78.26
25526;BME280;13424;48.424;11.258;2023-04-26T03:17:01;95535.50;;;9.14;79.24
25526;BME280;13424;48.424;11.258;2023-04-26T03:19:29;95536.53;;;9.13;79.47
25526;BME280;13424;48.424;11.258;2023-04-26T03:21:55;95536.63;;;9.30;78.50
25526;BME280;13424;48.424;11.258;2023-04-26T03:24:21;95534.56;;;9.32;78.50
25526;BME280;13424;48.424;11.258;2023-04-26T03:26:48;95530.97;;;9.38;78.36
25526;BME280;13424;48.424;11.258;2023-04-26T03:29:15;95537.47;;;9.19;79.00
25526;BME280;13424;48.424;11.258;2023-04-26T03:31:41;95534.25;;;9.17;78.82
25526;BME280;13424;48.424;11.258;2023-04-26T03:34:07;95536.41;;;9.32;78.29
25526;BME280;13424;48.424;11.258;2023-04-26T03:36:34;95539.41;;;9.23;78.13
25526;BME280;13424;48.424;11.258;2023-04-26T03:39:01;95539.88;;;9.20;78.24
25526;BME280;13424;48.424;11.258;2023-04-26T03:41:28;95540.13;;;9.07;78.94
25526;BME280;13424;48.424;11.258;2023-04-26T03:43:55;95535.94;;;9.23;78.37
25526;BME280;13424;48.424;11.258;2023-04-26T03:46:22;95532.94;;;9.19;78.48
25526;BME280;13424;48.424;11.258;2023-04-26T03:48:48;95540.72;;;9.09;78.70
25526;BME280;13424;48.424;11.258;2023-04-26T03:51:14;95547.19;;;9.25;78.31
25526;BME280;13424;48.424;11.258;2023-04-26T03:53:40;95547.19;;;9.13;78.78
25526;BME280;13424;48.424;11.258;2023-04-26T03:56:07;95549.72;;;9.08;78.81
25526;BME280;13424;48.424;11.258;2023-04-26T03:58:33;95558.97;;;9.06;78.84
25526;BME280;13424;48.424;11.258;2023-04-26T04:00:59;95560.34;;;9.32;78.40
25526;BME280;13424;48.424;11.258;2023-04-26T04:04:12;95550.75;;;9.31;78.32
25526;BME280;13424;48.424;11.258;2023-04-26T04:06:38;95560.97;;;9.10;78.92
25526;BME280;13424;48.424;11.258;2023-04-26T04:09:04;95568.25;;;9.27;78.25
25526;BME280;13424;48.424;11.258;2023-04-26T04:11:31;95566.50;;;9.20;78.65
25526;BME280;13424;48.424;11.258;2023-04-26T04:13:57;95566.03;;;9.23;78.15
25526;BME280;13424;48.424;11.258;2023-04-26T04:16:23;95562.69;;;9.16;78.21
25526;BME280;13424;48.424;11.258;2023-04-26T04:18:49;95558.38;;;9.15;78.66
25526;BME280;13424;48.424;11.258;2023-04-26T04:21:15;95559.47;;;9.26;78.38
25526;BME280;13424;48.424;11.258;2023-04-26T04:23:41;95565.94;;;9.42;77.26
25526;BME280;13424;48.424;11.258;2023-04-26T04:26:09;95569.97;;;9.44;77.61
25526;BME280;13424;48.424;11.258;2023-04-26T04:28:38;95570.22;;;9.43;77.43
25526;BME280;13424;48.424;11.258;2023-04-26T04:31:06;95571.69;;;9.39;77.57
25526;BME280;13424;48.424;11.258;2023-04-26T04:33:36;95567.91;;;9.35;77.25
25526;BME280;13424;48.424;11.258;2023-04-26T04:36:06;95580.03;;;9.31;77.13
25526;BME280;13424;48.424;11.258;2023-04-26T04:38:32;95583.16;;;9.16;77.75
25526;BME280;13424;48.424;11.258;2023-04-26T04:40:59;95583.16;;;9.39;76.67
25526;BME280;13424;48.424;11.258;2023-04-26T04:43:25;95576.22;;;9.38;76.77
25526;BME280;13424;48.424;11.258;2023-04-26T04:45:50;95584.56;;;9.42;76.66
25526;BME280;13424;48.424;11.258;2023-04-26T04:48:17;95592.88;;;9.57;75.79
25526;BME280;13424;48.424;11.258;2023-04-26T04:51:28;95591.00;;;9.69;76.00
25526;BME280;13424;48.424;11.258;2023-04-26T04:53:56;95590.56;;;9.49;76.49
25526;BME280;13424;48.424;11.258;2023-04-26T04:56:22;95593.34;;;9.31;77.32
25526;BME280;13424;48.424;11.258;2023-04-26T04:58:48;95595.44;;;9.52;76.28
25526;BME280;13424;48.424;11.258;2023-04-26T05:01:17;95599.72;;;9.65;76.77
25526;BME280;13424;48.424;11.258;2023-04-26T05:03:48;95611.88;;;9.49;76.61
25526;BME280;13424;48.424;11.258;2023-04-26T05:06:14;95615.06;;;9.86;75.76
25526;BME280;13424;48.424;11.258;2023-04-26T05:08:39;95607.56;;;9.71;76.57
25526;BME280;13424;48.424;11.258;2023-04-26T05:11:07;95605.59;;;10.19;74.83
25526;BME280;13424;48.424;11.258;2023-04-26T05:13:33;95604.66;;;9.85;75.57
25526;BME280;13424;48.424;11.258;2023-04-26T05:15:59;95607.44;;;9.90;75.35
25526;BME280;13424;48.424;11.258;2023-04-26T05:18:25;95602.59;;;9.63;75.75
25526;BME280;13424;48.424;11.258;2023-04-26T05:20:50;95602.31;;;10.00;74.84
25526;BME280;13424;48.424;11.258;2023-04-26T05:23:16;95611.16;;;9.89;74.80
25526;BME280;13424;48.424;11.258;2023-04-26T05:25:42;95603.16;;;9.89;74.77
25526;BME280;13424;48.424;11.258;2023-04-26T05:28:35;95599.88;;;9.98;74.31
25526;BME280;13424;48.424;11.258;2023-04-26T05:31:22;95606.66;;;10.58;72.72
25526;BME280;13424;48.424;11.258;2023-04-26T05:34:08;95604.59;;;10.77;71.97
25526;BME280;13424;48.424;11.258;2023-04-26T05:36:36;95618.94;;;10.30;73.11
25526;BME280;13424;48.424;11.258;2023-04-26T05:39:02;95618.56;;;10.67;72.65
25526;BME280;13424;48.424;11.258;2023-04-26T05:41:31;95618.84;;;10.54;73.37
25526;BME280;13424;48.424;11.258;2023-04-26T05:43:57;95608.69;;;10.51;73.02
25526;BME280;13424;48.424;11.258;2023-04-26T05:46:22;95610.88;;;10.42;73.90
25526;BME280;13424;48.424;11.258;2023-04-26T05:48:48;95612.47;;;10.83;72.76
25526;BME280;13424;48.424;11.258;2023-04-26T05:51:14;95620.97;;;10.40;73.40
25526;BME280;13424;48.424;11.258;2023-04-26T05:53:40;95612.25;;;10.73;72.40
25526;BME280;13424;48.424;11.258;2023-04-26T05:56:06;95614.03;;;10.68;72.19
25526;BME280;13424;48.424;11.258;2023-04-26T05:58:33;95613.16;;;10.10;72.81
25526;BME280;13424;48.424;11.258;2023-04-26T06:01:00;95627.59;;;10.66;71.67
25526;BME280;13424;48.424;11.258;2023-04-26T06:03:25;95620.75;;;10.42;72.93
25526;BME280;13424;48.424;11.258;2023-04-26T06:09:21;95633.09;;;10.19;72.19
25526;BME280;13424;48.424;11.258;2023-04-26T06:11:46;95634.78;;;11.28;70.23
25526;BME280;13424;48.424;11.258;2023-04-26T06:14:12;95628.34;;;11.07;70.11
25526;BME280;13424;48.424;11.258;2023-04-26T06:16:38;95634.88;;;11.33;68.68
25526;BME280;13424;48.424;11.258;2023-04-26T06:19:04;95635.63;;;11.62;69.57
25526;BME280;13424;48.424;11.258;2023-04-26T06:21:30;95640.88;;;11.23;69.69
25526;BME280;13424;48.424;11.258;2023-04-26T06:23:56;95637.63;;;11.21;69.86
25526;BME280;13424;48.424;11.258;2023-04-26T06:26:26;95643.31;;;11.25;69.49
25526;BME280;13424;48.424;11.258;2023-04-26T06:28:51;95641.88;;;10.88;70.59
25526;BME280;13424;48.424;11.258;2023-04-26T06:31:17;95640.94;;;10.95;69.87
25526;BME280;13424;48.424;11.258;2023-04-26T06:33:44;95641.44;;;11.42;67.76
25526;BME280;13424;48.424;11.258;2023-04-26T06:36:11;95646.53;;;11.27;67.36
25526;BME280;13424;48.424;11.258;2023-04-26T06:38:38;95653.09;;;12.08;68.25
25526;BME280;13424;48.424;11.258;2023-04-26T06:41:03;95653.47;;;10.25;69.19
25526;BME280;13424;48.424;11.258;2023-04-26T06:43:33;95646.22;;;10.49;69.80
25526;BME280;13424;48.424;11.258;2023-04-26T06:46:04;95652.22;;;11.30;68.80
25526;BME280;13424;48.424;11.258;2023-04-26T06:48:30;95656.97;;;11.28;66.94
25526;BME280;13424;48.424;11.258;2023-04-26T06:50:55;95651.47;;;11.18;67.69
25526;BME280;13424;48.424;11.258;2023-04-26T06:53:21;95655.59;;;11.42;65.09
25526;BME280;13424;48.424;11.258;2023-04-26T06:55:47;95657.59;;;11.02;68.14
25526;BME280;13424;48.424;11.258;2023-04-26T06:58:13;95655.97;;;11.01;65.78
25526;BME280;13424;48.424;11.258;2023-04-26T07:00:39;95655.19;;;11.34;65.14
25526;BME280;13424;48.424;11.258;2023-04-26T07:03:04;95661.09;;;11.53;65.38
25526;BME280;13424;48.424;11.258;2023-04-26T07:05:30;95663.81;;;12.30;64.51
25526;BME280;13424;48.424;11.258;2023-04-26T07:07:56;95660.22;;;12.41;63.58
25526;BME280;13424;48.424;11.258;2023-04-26T07:10:22;95663.78;;;12.96;63.23
25526;BME280;13424;48.424;11.258;2023-04-26T07:12:48;95663.75;;;12.69;63.10
25526;BME280;13424;48.424;11.258;2023-04-26T07:15:14;95660.88;;;13.02;61.40
25526;BME280;13424;48.424;11.258;2023-04-26T07:17:40;95665.81;;;12.40;63.99
25526;BME280;13424;48.424;11.258;2023-04-26T07:20:06;95672.91;;;12.73;63.18
25526;BME280;13424;48.424;11.258;2023-04-26T07:22:32;95662.59;;;12.86;63.95
25526;BME280;13424;48.424;11.258;2023-04-26T07:24:58;95659.56;;;11.57;64.17
25526;BME280;13424;48.424;11.258;2023-04-26T07:28:01;95670.09;;;13.11;62.65
25526;BME280;13424;48.424;11.258;2023-04-26T07:30:27;95665.50;;;10.97;66.33
25526;BME280;13424;48.424;11.258;2023-04-26T07:32:53;95664.00;;;12.01;64.39
25526;BME280;13424;48.424;11.258;2023-04-26T07:35:18;95666.03;;;12.82;63.38
25526;BME280;13424;48.424;11.258;2023-04-26T07:37:44;95666.22;;;13.02;59.49
25526;BME280;13424;48.424;11.258;2023-04-26T07:40:11;95664.56;;;12.04;61.73
25526;BME280;13424;48.424;11.258;2023-04-26T07:43:05;95665.63;;;12.24;59.59
25526;BME280;13424;48.424;11.258;2023-04-26T07:45:31;95665.22;;;13.08;59.57
25526;BME280;13424;48.424;11.258;2023-04-26T07:47:57;95665.13;;;12.27;60.94
25526;BME280;13424;48.424;11.258;2023-04-26T07:50:23;95663.56;;;12.53;60.89
25526;BME280;13424;48.424;11.258;2023-04-26T07:52:49;95672.78;;;12.19;62.06
25526;BME280;13424;48.424;11.258;2023-04-26T07:55:15;95668.38;;;12.29;59.37
25526;BME280;13424;48.424;11.258;2023-04-26T07:57:41;95679.00;;;12.46;58.87
25526;BME280;13424;48.424;11.258;2023-04-26T08:00:08;95679.34;;;12.11;59.18
25526;BME280;13424;48.424;11.258;2023-04-26T08:02:40;95674.94;;;11.83;59.62
25526;BME280;13424;48.424;11.258;2023-04-26T08:05:06;95675.25;;;12.04;63.49
25526;BME280;13424;48.424;11.258;2023-04-26T08:07:32;95667.81;;;11.72;59.76
25526;BME280;13424;48.424;11.258;2023-04-26T08:09:58;95670.16;;;12.24;59.02
25526;BME280;13424;48.424;11.258;2023-04-26T08:12:23;95669.69;;;12.27;59.83
25526;BME280;13424;48.424;11.258;2023-04-26T08:14:49;95662.97;;;11.35;59.73
25526;BME280;13424;48.424;11.258;2023-04-26T08:17:15;95667.25;;;11.36;60.86
25526;BME280;13424;48.424;11.258;2023-04-26T08:19:41;95675.16;;;12.37;59.23
25526;BME280;13424;48.424;11.258;2023-04-26T08:22:07;95674.22;;;12.26;59.76
25526;BME280;13424;48.424;11.258;2023-04-26T08:24:33;95669.31;;;12.40;60.48
25526;BME280;13424;48.424;11.258;2023-04-26T08:26:59;95669.00;;;12.58;59.34
25526;BME280;13424;48.424;11.258;2023-04-26T08:29:26;95670.22;;;13.27;57.69
25526;BME280;13424;48.424;11.258;2023-04-26T08:31:52;95670.13;;;13.44;58.36
25526;BME280;13424;48.424;11.258;2023-04-26T08:34:18;95675.34;;;13.28;59.17
25526;BME280;13424;48.424;11.258;2023-04-26T08:36:44;95674.59;;;14.07;58.79
25526;BME280;13424;48.424;11.258;2023-04-26T08:39:10;95670.69;;;13.83;58.15
25526;BME280;13424;48.424;11.258;2023-04-26T08:41:44;95674.63;;;13.70;57.78
25526;BME280;13424;48.424;11.258;2023-04-26T08:48:20;95674.94;;;13.79;57.94
25526;BME280;13424;48.424;11.258;2023-04-26T08:50:46;95667.41;;;12.63;58.55
25526;BME280;13424;48.424;11.258;2023-04-26T08:53:16;95665.75;;;13.05;60.94
25526;BME280;13424;48.424;11.258;2023-04-26T08:55:49;95668.84;;;12.70;57.53
25526;BME280;13424;48.424;11.258;2023-04-26T08:58:19;95675.22;;;13.77;59.66
25526;BME280;13424;48.424;11.258;2023-04-26T09:00:46;95671.25;;;13.90;61.60
25526;BME280;13424;48.424;11.258;2023-04-26T09:03:11;95670.06;;;13.71;57.13
25526;BME280;13424;48.424;11.258;2023-04-26T09:05:41;95668.44;;;14.59;55.09
25526;BME280;13424;48.424;11.258;2023-04-26T09:08:15;95656.47;;;14.24;55.66
25526;BME280;13424;48.424;11.258;2023-04-26T09:10:45;95660.56;;;13.53;54.37
25526;BME280;13424;48.424;11.258;2023-04-26T09:13:10;95659.59;;;14.06;57.79
25526;BME280;13424;48.424;11.258;2023-04-26T09:15:37;95658.34;;;14.97;55.28
25526;BME280;13424;48.424;11.258;2023-04-26T09:18:19;95672.59;;;14.35;59.87
25526;BME280;13424;48.424;11.258;2023-04-26T09:21:06;95666.94;;;13.84;55.99
25526;BME280;13424;48.424;11.258;2023-04-26T09:23:33;95656.84;;;12.29;57.58
25526;BME280;13424;48.424;11.258;2023-04-26T09:26:18;95657.41;;;12.53;56.35
25526;BME280;13424;48.424;11.258;2023-04-26T09:28:45;95665.59;;;12.90;54.97
25526;BME280;13424;48.424;11.258;2023-04-26T09:31:38;95666.19;;;13.56;55.17
25526;BME280;13424;48.424;11.258;2023-04-26T09:34:04;95669.16;;;13.55;55.93
25526;BME280;13424;48.424;11.258;2023-04-26T09:36:30;95656.88;;;14.01;52.98
25526;BME280;13424;48.424;11.258;2023-04-26T09:38:57;95659.09;;;14.72;52.49
25526;BME280;13424;48.424;11.258;2023-04-26T09:41:23;95652.75;;;15.19;52.26
25526;BME280;13424;48.424;11.258;2023-04-26T09:43:52;95655.22;;;15.61;50.68
25526;BME280;13424;48.424;11.258;2023-04-26T09:46:22;95657.31;;;15.23;50.70
25526;BME280;13424;48.424;11.258;2023-04-26T09:49:00;95657.84;;;15.15;52.07
25526;BME280;13424;48.424;11.258;2023-04-26T09:51:26;95664.19;;;14.73;53.02
25526;BME280;13424;48.424;11.258;2023-04-26T09:53:53;95651.38;;;14.96;51.19
25526;BME280;13424;48.424;11.258;2023-04-26T09:56:19;95654.59;;;15.08;51.50
25526;BME280;13424;48.424;11.258;2023-04-26T10:01:14;95661.34;;;16.07;50.63
25526;BME280;13424;48.424;11.258;2023-04-26T10:03:49;95657.06;;;15.96;51.17
25526;BME280;13424;48.424;11.258;2023-04-26T10:06:16;95648.97;;;16.81;49.43
25526;BME280;13424;48.424;11.258;2023-04-26T10:08:43;95652.34;;;14.59;50.73
25526;BME280;13424;48.424;11.258;2023-04-26T10:11:09;95641.78;;;12.67;55.70
25526;BME280;13424;48.424;11.258;2023-04-26T10:13:39;95651.06;;;12.15;55.64
25526;BME280;13424;48.424;11.258;2023-04-26T10:16:06;95646.53;;;12.16;59.34
25526;BME280;13424;48.424;11.258;2023-04-26T10:18:32;95640.94;;;13.84;54.71
25526;BME280;13424;48.424;11.258;2023-04-26T10:23:38;95645.31;;;13.58;53.90
25526;BME280;13424;48.424;11.258;2023-04-26T10:26:05;95639.47;;;14.14;54.69
25526;BME280;13424;48.424;11.258;2023-04-26T10:28:53;95637.38;;;14.78;54.10
25526;BME280;13424;48.424;11.258;2023-04-26T10:31:19;95638.44;;;14.20;51.53
25526;BME280;13424;48.424;11.258;2023-04-26T10:33:45;95637.56;;;13.99;51.28
25526;BME280;13424;48.424;11.258;2023-04-26T10:36:30;95630.38;;;14.83;50.37
25526;BME280;13424;48.424;11.258;2023-04-26T10:39:19;95626.34;;;14.12;51.44
25526;BME280;13424;48.424;11.258;2023-04-26T10:41:49;95623.47;;;15.02;50.62
25526;BME280;13424;48.424;11.258;2023-04-26T10:44:37;95630.69;;;14.96;51.28
25526;BME280;13424;48.424;11.258;2023-04-26T10:47:06;95635.47;;;14.11;50.24
25526;BME280;13424;48.424;11.258;2023-04-26T10:49:44;95628.22;;;14.85;48.40
25526;BME280;13424;48.424;11.258;2023-04-26T10:52:18;95622.34;;;14.77;51.30
25526;BME280;13424;48.424;11.258;2023-04-26T10:54:49;95623.47;;;15.02;51.97
25526;BME280;13424;48.424;11.258;2023-04-26T10:57:16;95622.28;;;14.62;52.68
25526;BME280;13424;48.424;11.258;2023-04-26T11:03:02;95612.72;;;15.17;47.72
25526;BME280;13424;48.424;11.258;2023-04-26T11:05:50;95614.81;;;14.79;48.72
25526;BME280;13424;48.424;11.258;2023-04-26T11:11:52;95615.38;;;14.92;50.62
25526;BME280;13424;48.424;11.258;2023-04-26T11:14:18;95619.38;;;14.79;50.96
25526;BME280;13424;48.424;11.258;2023-04-26T11:16:44;95619.13;;;15.87;49.38
25526;BME280;13424;48.424;11.258;2023-04-26T11:19:10;95616.72;;;15.96;48.34
25526;BME280;13424;48.424;11.258;2023-04-26T11:21:36;95614.88;;;15.10;49.07
25526;BME280;13424;48.424;11.258;2023-04-26T11:24:02;95615.94;;;15.55;49.21
25526;BME280;13424;48.424;11.258;2023-04-26T11:26:32;95608.69;;;15.20;51.14
25526;BME280;13424;48.424;11.258;2023-04-26T11:28:59;95590.16;;;15.28;47.91
25526;BME280;13424;48.424;11.258;2023-04-26T11:31:25;95601.44;;;15.10;49.54
25526;BME280;13424;48.424;11.258;2023-04-26T11:34:02;95606.00;;;16.51;45.68
25526;BME280;13424;48.424;11.258;2023-04-26T11:36:28;95603.59;;;16.49;47.09
25526;BME280;13424;48.424;11.258;2023-04-26T11:38:54;95597.66;;;15.31;48.85
25526;BME280;13424;48.424;11.258;2023-04-26T11:41:21;95601.34;;;16.77;48.32
25526;BME280;13424;48.424;11.258;2023-04-26T11:43:47;95603.56;;;15.54;48.05
25526;BME280;13424;48.424;11.258;2023-04-26T11:46:13;95598.16;;;16.05;48.08
25526;BME280;13424;48.424;11.258;2023-04-26T11:48:38;95591.56;;;16.31;46.17
25526;BME280;13424;48.424;11.258;2023-04-26T11:51:06;95600.78;;;16.10;47.63
25526;BME280;13424;48.424;11.258;2023-04-26T11:53:42;95611.09;;;15.21;48.97
25526;BME280;13424;48.424;11.258;2023-04-26T11:56:19;95602.50;;;15.40;47.76
25526;BME280;13424;48.424;11.258;2023-04-26T11:58:47;95608.69;;;15.50;50.63
25526;BME280;13424;48.424;11.258;2023-04-26T12:01:24;95607.34;;;15.73;49.12
25526;BME280;13424;48.424;11.258;2023-04-26T12:03:55;95610.25;;;14.90;50.69
25526;BME280;13424;48.424;11.258;2023-04-26T12:06:41;95607.91;;;15.34;47.98
25526;BME280;13424;48.424;11.258;2023-04-26T12:09:07;95603.13;;;14.38;48.96
25526;BME280;13424;48.424;11.258;2023-04-26T12:11:36;95605.47;;;14.14;48.59
25526;BME280;13424;48.424;11.258;2023-04-26T12:14:03;95597.22;;;14.41;49.13
25526;BME280;13424;48.424;11.258;2023-04-26T12:16:29;95599.81;;;15.14;48.07
25526;BME280;13424;48.424;11.258;2023-04-26T12:18:55;95618.09;;;15.48;50.25
25526;BME280;13424;48.424;11.258;2023-04-26T12:21:24;95610.03;;;15.88;47.80
25526;BME280;13424;48.424;11.258;2023-04-26T12:23:50;95604.09;;;15.56;47.77
25526;BME280;13424;48.424;11.258;2023-04-26T12:26:16;95609.41;;;16.12;47.98
25526;BME280;13424;48.424;11.258;2023-04-26T12:28:42;95604.84;;;16.07;48.28
25526;BME280;13424;48.424;11.258;2023-04-26T12:31:08;95596.06;;;15.46;44.84
25526;BME280;13424;48.424;11.258;2023-04-26T12:33:34;95592.53;;;15.91;46.70
25526;BME280;13424;48.424;11.258;2023-04-26T12:36:10;95585.03;;;14.91;47.30
25526;BME280;13424;48.424;11.258;2023-04-26T12:42:20;95575.38;;;15.05;46.72
25526;BME280;13424;48.424;11.258;2023-04-26T12:44:46;95587.59;;;16.18;45.91
25526;BME280;13424;48.424;11.258;2023-04-26T12:47:12;95574.69;;;16.10;48.30
25526;BME280;13424;48.424;11.258;2023-04-26T12:49:38;95570.44;;;16.69;45.25
25526;BME280;13424;48.424;11.258;2023-04-26T12:52:04;95573.44;;;17.36;45.01
25526;BME280;13424;48.424;11.258;2023-04-26T12:54:35;95570.94;;;16.66;47.07
25526;BME280;13424;48.424;11.258;2023-04-26T12:57:01;95576.84;;;16.73;45.96
25526;BME280;13424;48.424;11.258;2023-04-26T12:59:27;95567.75;;;17.08;47.55
25526;BME280;13424;48.424;11.258;2023-04-26T13:01:53;95561.47;;;16.79;46.63
25526;BME280;13424;48.424;11.258;2023-04-26T13:04:19;95565.00;;;17.13;45.33
25526;BME280;13424;48.424;11.258;2023-04-26T13:07:10;95563.41;;;16.13;46.81
25526;BME280;13424;48.424;11.258;2023-04-26T13:09:35;95568.06;;;17.01;44.69
25526;BME280;13424;48.424;11.258;2023-04-26T13:12:01;95569.09;;;16.61;47.20
25526;BME280;13424;48.424;11.258;2023-04-26T13:14:27;95557.50;;;16.01;46.55
25526;BME280;13424;48.424;11.258;2023-04-26T13:17:46;95556.75;;;15.85;46.86
25526;BME280;13424;48.424;11.258;2023-04-26T13:20:12;95554.72;;;15.01;48.15
25526;BME280;13424;48.424;11.258;2023-04-26T13:22:38;95552.41;;;16.05;47.28
25526;BME280;13424;48.424;11.258;2023-04-26T13:25:07;95547.22;;;14.10;49.37
25526;BME280;13424;48.424;11.258;2023-04-26T13:27:33;95533.06;;;15.93;49.52
25526;BME280;13424;48.424;11.258;2023-04-26T13:29:58;95530.78;;;15.35;46.06